Antigo, Wisconsin
Current Conditions -  °F | °C
As of 10:55 PM on Monday 22 Dec 2014 (Local Time) from KAIG Reporting Station
Light Snow Light Snow  
Wind Chill: 20°   Ceiling: 700
Heat Index: 31°   Visibility: 3mi
Dew Point: 30°   Wind: 15mph
Humidity: 96%   Direction: 90°E
Pressure: 29.7"   Gusts: 18mph
Location:  45.14°N, 89.15°W
Report Text: KAIG 230455Z AUTO 09013G16KT 3SM -SN OVC007 M01/M01 A2970 RMK AO2 T10061011
Loading
Personal Weather Stations






























Interactive Weather Map New forecast layout! Learn more

10-Day Weather Forecast

Advertisements
Track Severe Weather on mobile